createdAt,value
2022-09-30T00:00:52.653Z,2.47
2022-09-30T00:03:24.668Z,2.38
2022-09-30T00:05:56.198Z,2.77
2022-09-30T00:08:28.134Z,2.50
2022-09-30T00:10:59.908Z,2.75
2022-09-30T00:13:31.792Z,3.22
2022-09-30T00:16:03.297Z,3.00
2022-09-30T00:18:35.250Z,3.33
2022-09-30T00:21:06.765Z,2.72
2022-09-30T00:23:39.101Z,2.38
2022-09-30T00:26:12.053Z,3.03
2022-09-30T00:28:43.881Z,2.58
2022-09-30T00:31:15.524Z,3.45
2022-09-30T00:34:07.485Z,3.22
2022-09-30T00:36:39.267Z,3.10
2022-09-30T00:39:10.942Z,4.30
2022-09-30T00:41:42.567Z,3.83
2022-09-30T00:44:14.555Z,3.33
2022-09-30T00:46:46.104Z,2.90
2022-09-30T00:49:18.295Z,3.38
2022-09-30T00:51:49.886Z,2.85
2022-09-30T00:54:21.748Z,4.00
2022-09-30T00:56:53.234Z,3.28
2022-09-30T00:59:25.632Z,2.78
2022-09-30T01:01:57.209Z,2.40
2022-09-30T01:04:29.222Z,3.65
2022-09-30T01:07:00.718Z,2.90
2022-09-30T01:09:32.609Z,1.73
2022-09-30T01:12:04.145Z,2.80
2022-09-30T01:14:36.124Z,1.88
2022-09-30T01:17:07.763Z,3.17
2022-09-30T01:19:39.572Z,2.60
2022-09-30T01:22:11.135Z,2.03
2022-09-30T01:24:42.946Z,2.83
2022-09-30T01:27:15.226Z,2.38
2022-09-30T01:29:47.076Z,2.22
2022-09-30T01:32:18.653Z,2.28
2022-09-30T01:34:50.497Z,2.17
2022-09-30T01:37:21.989Z,2.85
2022-09-30T01:39:53.856Z,2.88
2022-09-30T01:42:25.486Z,2.15
2022-09-30T01:45:03.057Z,2.60
2022-09-30T01:47:34.547Z,2.83
2022-09-30T01:50:06.381Z,2.30
2022-09-30T01:52:37.899Z,2.95
2022-09-30T01:55:09.985Z,2.50
2022-09-30T01:57:41.479Z,1.50
2022-09-30T02:00:13.491Z,2.35
2022-09-30T02:02:45.491Z,2.03
2022-09-30T02:05:17.027Z,2.30
2022-09-30T02:07:48.845Z,1.90
2022-09-30T02:10:20.334Z,2.50
2022-09-30T02:12:52.154Z,2.08
2022-09-30T02:15:23.692Z,2.55
2022-09-30T02:17:55.447Z,2.30
2022-09-30T02:20:26.929Z,3.08
2022-09-30T02:22:58.880Z,2.30
2022-09-30T02:25:30.410Z,2.13
2022-09-30T02:28:03.693Z,2.03
2022-09-30T02:30:36.118Z,1.50
2022-09-30T02:33:07.927Z,2.33
2022-09-30T02:35:39.431Z,1.52
2022-09-30T02:38:11.258Z,1.85
2022-09-30T02:40:43.462Z,1.73
2022-09-30T02:43:15.275Z,1.25
2022-09-30T02:45:46.940Z,1.52
2022-09-30T02:48:18.722Z,2.25
2022-09-30T02:50:50.257Z,1.55
2022-09-30T02:53:22.067Z,1.60
2022-09-30T02:55:53.601Z,1.92
2022-09-30T02:58:29.681Z,1.80
2022-09-30T03:01:01.225Z,1.70
2022-09-30T03:03:33.093Z,1.83
2022-09-30T03:06:04.591Z,0.98
2022-09-30T03:08:36.982Z,1.85
2022-09-30T03:11:08.561Z,1.88
2022-09-30T03:13:40.463Z,1.95
2022-09-30T03:16:13.950Z,1.58
2022-09-30T03:18:46.148Z,1.08
2022-09-30T03:21:17.627Z,1.70
2022-09-30T03:23:50.688Z,1.90
2022-09-30T03:26:23.014Z,1.90
2022-09-30T03:28:54.809Z,1.92
2022-09-30T03:31:26.334Z,1.77
2022-09-30T03:33:58.182Z,2.40
2022-09-30T03:36:29.675Z,1.55
2022-09-30T03:39:01.565Z,2.30
2022-09-30T03:41:33.055Z,1.27
2022-09-30T03:44:04.584Z,1.67
2022-09-30T03:46:36.197Z,1.65
2022-09-30T03:49:08.286Z,1.33
2022-09-30T03:51:39.791Z,2.37
2022-09-30T03:54:11.683Z,1.25
2022-09-30T03:56:43.334Z,2.28
2022-09-30T03:59:15.396Z,1.42
2022-09-30T04:01:47.150Z,2.27
2022-09-30T04:04:19.351Z,1.85
2022-09-30T04:06:51.031Z,1.27
2022-09-30T04:09:23.098Z,1.60
2022-09-30T04:11:55.006Z,1.30
2022-09-30T04:14:27.103Z,1.48
2022-09-30T04:16:58.629Z,1.27
2022-09-30T04:19:30.700Z,2.28
2022-09-30T04:22:02.243Z,2.03
2022-09-30T04:24:34.170Z,1.48
2022-09-30T04:27:05.660Z,1.38
2022-09-30T04:29:37.535Z,1.30
2022-09-30T04:32:09.051Z,1.33
2022-09-30T04:34:41.065Z,1.50
2022-09-30T04:37:14.023Z,1.83
2022-09-30T04:39:45.713Z,1.77
2022-09-30T04:42:18.327Z,1.38
2022-09-30T04:44:50.317Z,2.13
2022-09-30T04:47:22.235Z,2.27
2022-09-30T04:49:54.378Z,2.08
2022-09-30T04:52:26.001Z,1.75
2022-09-30T04:54:59.149Z,2.42
2022-09-30T04:57:30.655Z,1.88
2022-09-30T05:00:02.465Z,1.67
2022-09-30T05:02:33.962Z,1.90
2022-09-30T05:05:06.681Z,1.90
2022-09-30T05:07:38.166Z,1.52
2022-09-30T05:10:11.204Z,1.63
2022-09-30T05:12:42.704Z,1.58
2022-09-30T05:15:14.714Z,1.48
2022-09-30T05:17:47.373Z,1.75
2022-09-30T05:20:21.074Z,1.52
2022-09-30T05:22:53.054Z,1.83
2022-09-30T05:25:25.009Z,1.67
2022-09-30T05:27:56.918Z,1.60
2022-09-30T05:30:28.438Z,1.50
2022-09-30T05:33:00.299Z,1.23
2022-09-30T05:35:32.173Z,2.35
2022-09-30T05:38:05.039Z,1.88
2022-09-30T05:43:08.414Z,2.22
2022-09-30T05:45:40.076Z,2.08
2022-09-30T05:48:11.864Z,2.00
2022-09-30T05:50:43.385Z,1.40
2022-09-30T05:53:15.351Z,1.73
2022-09-30T05:55:47.485Z,2.00
2022-09-30T05:58:19.292Z,1.85
2022-09-30T06:00:50.866Z,1.90
2022-09-30T06:03:22.714Z,2.28
2022-09-30T06:05:54.575Z,1.60
2022-09-30T06:08:26.060Z,1.98
2022-09-30T06:10:59.962Z,1.55
2022-09-30T06:13:31.669Z,2.33
2022-09-30T06:16:03.561Z,2.17
2022-09-30T06:18:35.146Z,2.80
2022-09-30T06:21:06.981Z,2.47
2022-09-30T06:23:38.542Z,1.88
2022-09-30T06:26:11.634Z,2.05
2022-09-30T06:28:43.914Z,2.35
2022-09-30T06:31:15.826Z,2.67
2022-09-30T06:33:47.427Z,2.47
2022-09-30T06:36:19.277Z,1.67
2022-09-30T06:38:54.353Z,2.47
2022-09-30T06:41:27.657Z,2.35
2022-09-30T06:43:59.236Z,2.28
2022-09-30T06:46:31.644Z,2.90
2022-09-30T06:49:12.826Z,2.50
2022-09-30T06:51:45.541Z,2.42
2022-09-30T06:54:17.063Z,2.25
2022-09-30T06:56:48.916Z,2.50
2022-09-30T06:59:20.503Z,3.30
2022-09-30T07:01:52.396Z,2.13
2022-09-30T07:04:24.811Z,1.95
2022-09-30T07:06:56.326Z,2.63
2022-09-30T07:09:27.890Z,2.67
2022-09-30T07:11:59.926Z,2.22
2022-09-30T07:14:32.491Z,2.70
2022-09-30T07:17:04.954Z,2.55
2022-09-30T07:19:36.480Z,2.33
2022-09-30T07:22:27.286Z,2.70
2022-09-30T07:24:58.842Z,2.33
2022-09-30T07:27:32.196Z,2.47
2022-09-30T07:30:09.488Z,2.03
2022-09-30T07:32:43.633Z,2.58
2022-09-30T07:35:15.137Z,2.30
2022-09-30T07:37:47.137Z,2.60
2022-09-30T07:40:18.625Z,2.00
2022-09-30T07:42:50.494Z,2.17
2022-09-30T07:45:22.072Z,2.10
2022-09-30T07:47:54.181Z,2.13
2022-09-30T07:50:25.721Z,2.30
2022-09-30T07:52:57.628Z,2.65
2022-09-30T07:55:29.150Z,2.78
2022-09-30T07:58:01.899Z,2.85
2022-09-30T08:00:48.731Z,2.83
2022-09-30T08:03:20.596Z,2.97
2022-09-30T08:05:52.099Z,3.70
2022-09-30T08:08:24.216Z,2.92
2022-09-30T08:10:55.699Z,3.20
2022-09-30T08:13:27.522Z,2.65
2022-09-30T08:15:59.624Z,2.53
2022-09-30T08:18:31.106Z,3.03
2022-09-30T08:21:02.934Z,2.45
2022-09-30T08:23:34.423Z,2.50
2022-09-30T08:26:06.465Z,2.88
2022-09-30T08:28:38.408Z,2.42
2022-09-30T08:31:10.273Z,2.60
2022-09-30T08:33:41.831Z,2.17
2022-09-30T08:36:13.728Z,3.05
2022-09-30T08:38:45.207Z,2.60
2022-09-30T08:41:16.715Z,2.78
2022-09-30T08:43:48.207Z,2.30
2022-09-30T08:46:20.120Z,2.70
2022-09-30T08:48:51.647Z,2.50
2022-09-30T08:51:24.842Z,2.15
2022-09-30T08:53:56.332Z,2.50
2022-09-30T08:56:28.210Z,2.42
2022-09-30T08:58:59.713Z,3.05
2022-09-30T09:01:31.678Z,2.33
2022-09-30T09:04:03.243Z,2.80
2022-09-30T09:06:35.051Z,2.28
2022-09-30T09:09:06.600Z,2.60
2022-09-30T09:11:42.749Z,2.42
2022-09-30T09:14:15.101Z,2.50
2022-09-30T09:16:46.962Z,2.60
2022-09-30T09:19:18.579Z,2.65
2022-09-30T09:21:50.570Z,2.35
2022-09-30T09:24:22.119Z,2.67
2022-09-30T09:26:53.965Z,2.58
2022-09-30T09:29:25.824Z,2.22
2022-09-30T09:31:59.747Z,2.40
2022-09-30T09:34:31.300Z,2.72
2022-09-30T09:37:03.208Z,2.13
2022-09-30T09:39:34.764Z,2.13
2022-09-30T09:42:07.201Z,2.33
2022-09-30T09:44:38.713Z,2.20
2022-09-30T09:47:14.435Z,2.70
2022-09-30T09:49:45.988Z,2.28
2022-09-30T09:52:18.024Z,1.88
2022-09-30T09:54:50.921Z,2.43
2022-09-30T09:59:58.425Z,2.47
2022-09-30T10:02:30.426Z,2.53
2022-09-30T10:05:03.564Z,2.20
2022-09-30T10:07:35.363Z,2.10
2022-09-30T10:10:06.883Z,2.08
2022-09-30T10:12:38.874Z,1.83
2022-09-30T10:15:10.378Z,2.53
2022-09-30T10:17:42.233Z,2.10
2022-09-30T10:20:13.806Z,2.10
2022-09-30T10:22:45.678Z,2.20
2022-09-30T10:25:17.607Z,2.17
2022-09-30T10:27:49.640Z,2.50
2022-09-30T10:30:21.263Z,1.98
2022-09-30T10:32:53.117Z,2.08
2022-09-30T10:35:24.631Z,2.00
2022-09-30T10:37:56.189Z,1.60
2022-09-30T10:40:27.699Z,2.17
2022-09-30T10:42:59.689Z,2.10
2022-09-30T10:45:31.268Z,2.43
2022-09-30T10:48:03.259Z,2.00
2022-09-30T10:50:34.769Z,1.90
2022-09-30T10:53:06.278Z,1.90
2022-09-30T10:55:37.778Z,1.80
2022-09-30T10:58:09.601Z,1.70
2022-09-30T11:00:41.423Z,1.20
2022-09-30T11:03:13.001Z,1.77
2022-09-30T11:05:44.567Z,1.35
2022-09-30T11:08:16.461Z,1.60
2022-09-30T11:10:47.980Z,1.52
2022-09-30T11:13:19.510Z,1.02
2022-09-30T11:15:51.057Z,1.30
2022-09-30T11:18:23.198Z,1.23
2022-09-30T11:20:55.083Z,1.30
2022-09-30T11:23:26.607Z,1.27
2022-09-30T11:25:58.152Z,1.05
2022-09-30T11:28:30.050Z,1.27
2022-09-30T11:31:06.198Z,1.17
2022-09-30T11:33:38.579Z,1.30
2022-09-30T11:36:10.374Z,1.05
2022-09-30T11:38:41.863Z,1.20
2022-09-30T11:41:13.776Z,1.00
2022-09-30T11:43:45.273Z,1.10
2022-09-30T11:46:17.201Z,1.20
2022-09-30T11:48:49.238Z,1.00
2022-09-30T11:51:20.912Z,1.43
2022-09-30T11:53:52.405Z,1.20
2022-09-30T11:56:24.214Z,1.20
2022-09-30T11:58:56.443Z,1.20
2022-09-30T12:01:28.721Z,1.20
2022-09-30T12:04:00.268Z,0.63
2022-09-30T12:06:32.491Z,1.02
2022-09-30T12:09:04.054Z,0.73
2022-09-30T12:11:35.599Z,0.70
2022-09-30T12:14:07.308Z,0.82
2022-09-30T12:16:39.857Z,1.00
2022-09-30T12:19:11.411Z,1.10
2022-09-30T12:21:43.299Z,0.80
2022-09-30T12:24:15.573Z,0.77
2022-09-30T12:26:47.726Z,0.80
2022-09-30T12:29:38.070Z,0.95
2022-09-30T12:32:10.383Z,0.82
2022-09-30T12:34:42.354Z,0.82
2022-09-30T12:37:14.159Z,0.95
2022-09-30T12:39:45.672Z,0.88
2022-09-30T12:42:17.489Z,0.82
2022-09-30T12:44:51.238Z,0.70
2022-09-30T12:47:23.220Z,0.77
2022-09-30T12:49:54.701Z,0.80
2022-09-30T12:52:26.463Z,0.90
2022-09-30T12:54:58.029Z,0.85
2022-09-30T12:57:30.046Z,0.70
2022-09-30T13:00:01.585Z,0.70
2022-09-30T13:02:33.471Z,0.77
2022-09-30T13:05:05.043Z,0.75
2022-09-30T13:07:36.843Z,1.00
2022-09-30T13:10:08.325Z,1.02
2022-09-30T13:12:40.781Z,0.68
2022-09-30T13:15:12.415Z,0.93
2022-09-30T13:17:46.347Z,0.77
2022-09-30T13:20:18.395Z,0.70
2022-09-30T13:22:50.192Z,1.00
2022-09-30T13:25:21.725Z,0.90
2022-09-30T13:27:55.541Z,0.90
2022-09-30T13:30:32.229Z,0.75
2022-09-30T13:33:05.819Z,0.68
2022-09-30T13:35:37.893Z,0.70
2022-09-30T13:38:09.389Z,0.60
2022-09-30T13:41:00.790Z,0.65
2022-09-30T13:43:32.884Z,0.70
2022-09-30T13:46:04.784Z,0.70
2022-09-30T13:48:36.349Z,0.67
2022-09-30T13:51:08.346Z,0.70
2022-09-30T13:53:40.410Z,0.73
2022-09-30T13:56:12.271Z,0.70
2022-09-30T13:58:43.737Z,0.70
2022-09-30T14:01:17.446Z,0.70
2022-09-30T14:03:49.053Z,0.70
2022-09-30T14:06:22.879Z,0.63
2022-09-30T14:08:54.364Z,0.90
2022-09-30T14:11:26.226Z,0.70
2022-09-30T14:13:57.937Z,0.63
2022-09-30T14:16:29.945Z,0.60
2022-09-30T14:19:01.720Z,0.70
2022-09-30T14:26:58.328Z,0.70
2022-09-30T14:29:30.169Z,0.50
2022-09-30T14:32:02.805Z,0.57
2022-09-30T14:34:34.626Z,0.65
2022-09-30T14:37:06.972Z,0.70
2022-09-30T14:39:38.759Z,0.57
2022-09-30T14:42:10.261Z,0.80
2022-09-30T14:44:42.382Z,0.60
2022-09-30T14:47:14.267Z,0.95
2022-09-30T14:49:46.190Z,0.60
2022-09-30T14:52:18.206Z,0.53
2022-09-30T14:54:49.681Z,0.70
2022-09-30T14:57:22.396Z,0.60
2022-09-30T14:59:54.272Z,0.77
2022-09-30T15:02:26.032Z,0.57
2022-09-30T15:05:01.589Z,0.70
2022-09-30T15:07:33.365Z,0.70
2022-09-30T15:10:05.585Z,0.70
2022-09-30T15:12:37.725Z,0.70
2022-09-30T15:18:04.250Z,0.70
2022-09-30T15:20:36.269Z,1.35
2022-09-30T15:23:07.733Z,0.70
2022-09-30T15:25:40.187Z,0.73
2022-09-30T15:28:12.153Z,0.60
2022-09-30T15:30:45.101Z,0.70
2022-09-30T15:35:48.685Z,0.52
2022-09-30T15:38:20.745Z,0.60
2022-09-30T15:40:53.651Z,0.77
2022-09-30T15:45:59.816Z,0.60
2022-09-30T15:48:33.396Z,0.60
2022-09-30T15:51:05.896Z,0.52
2022-09-30T15:53:37.528Z,0.55
2022-09-30T15:56:10.714Z,0.73
2022-09-30T15:58:43.284Z,0.60
2022-09-30T16:01:14.921Z,0.98
2022-09-30T16:03:46.439Z,0.80
2022-09-30T16:06:18.582Z,0.70
2022-09-30T16:08:50.054Z,0.70
2022-09-30T16:11:21.814Z,0.50
2022-09-30T16:13:53.780Z,0.70
2022-09-30T16:16:25.361Z,0.90
2022-09-30T16:18:57.295Z,0.88
2022-09-30T16:21:28.790Z,1.00
2022-09-30T16:24:01.963Z,0.57
2022-09-30T16:26:33.987Z,0.70
2022-09-30T16:29:11.977Z,0.60
2022-09-30T16:31:45.223Z,0.60
2022-09-30T16:34:17.029Z,0.40
2022-09-30T16:36:48.503Z,0.70
2022-09-30T16:39:20.345Z,0.60
2022-09-30T16:41:54.219Z,0.60
2022-09-30T16:44:26.054Z,0.88
2022-09-30T16:46:57.528Z,0.60
2022-09-30T16:49:29.354Z,0.65
2022-09-30T16:52:00.892Z,0.70
2022-09-30T16:54:32.803Z,0.98
2022-09-30T16:57:04.283Z,0.85
2022-09-30T16:59:36.107Z,0.95
2022-09-30T17:02:07.925Z,1.10
2022-09-30T17:04:39.976Z,0.70
2022-09-30T17:07:11.468Z,1.10
2022-09-30T17:09:43.249Z,0.90
2022-09-30T17:12:14.704Z,0.95
2022-09-30T17:14:46.892Z,0.80
2022-09-30T17:17:18.521Z,1.00
2022-09-30T17:19:50.330Z,1.30
2022-09-30T17:22:22.248Z,1.10
2022-09-30T17:24:53.716Z,0.70
2022-09-30T17:27:25.497Z,1.23
2022-09-30T17:29:57.065Z,0.80
2022-09-30T17:32:28.857Z,1.10
2022-09-30T17:35:00.342Z,1.30
2022-09-30T17:37:32.388Z,1.30
2022-09-30T17:40:23.925Z,1.00
2022-09-30T17:43:07.775Z,0.95
2022-09-30T17:45:39.376Z,0.90
2022-09-30T17:48:11.185Z,0.65
2022-09-30T17:50:44.297Z,0.80
2022-09-30T17:53:18.492Z,1.35
2022-09-30T17:55:50.033Z,0.68
2022-09-30T17:58:21.833Z,0.95
2022-09-30T18:00:53.373Z,0.80
2022-09-30T18:03:28.892Z,1.33
2022-09-30T18:06:00.426Z,1.10
2022-09-30T18:08:32.229Z,0.70
2022-09-30T18:11:03.811Z,1.08
2022-09-30T18:13:35.726Z,0.95
2022-09-30T18:16:07.414Z,1.27
2022-09-30T18:18:39.491Z,1.20
2022-09-30T18:21:11.078Z,1.15
2022-09-30T18:23:43.033Z,1.20
2022-09-30T18:26:15.759Z,1.00
2022-09-30T18:28:48.128Z,1.20
2022-09-30T18:31:28.343Z,0.98
2022-09-30T18:34:00.309Z,0.80
2022-09-30T18:36:32.617Z,1.85
2022-09-30T18:39:04.479Z,1.40
2022-09-30T18:41:38.064Z,1.63
2022-09-30T18:44:11.655Z,1.52
2022-09-30T18:46:43.407Z,1.50
2022-09-30T18:49:15.359Z,1.20
2022-09-30T18:51:46.895Z,1.20
2022-09-30T18:54:18.877Z,1.70
2022-09-30T18:56:51.117Z,1.08
2022-09-30T18:59:24.062Z,1.20
2022-09-30T19:01:57.957Z,1.42
2022-09-30T19:04:29.864Z,0.88
2022-09-30T19:07:01.927Z,1.17
2022-09-30T19:09:33.819Z,1.17
2022-09-30T19:12:05.323Z,1.17
2022-09-30T19:14:38.425Z,1.02
2022-09-30T19:17:09.928Z,1.23
2022-09-30T19:19:41.862Z,1.05
2022-09-30T19:22:16.507Z,1.50
2022-09-30T19:24:48.456Z,1.60
2022-09-30T19:27:21.580Z,2.10
2022-09-30T19:29:58.524Z,1.63
2022-09-30T19:32:34.411Z,1.58
2022-09-30T19:35:06.961Z,1.92
2022-09-30T19:37:40.640Z,1.80
2022-09-30T19:40:21.486Z,1.55
2022-09-30T19:42:53.653Z,1.70
2022-09-30T19:45:26.438Z,1.25
2022-09-30T19:47:58.479Z,1.95
2022-09-30T19:50:30.463Z,2.30
2022-09-30T19:53:02.341Z,1.90
2022-09-30T19:55:46.727Z,1.63
2022-09-30T19:58:21.633Z,2.42
2022-09-30T20:00:53.258Z,1.92
2022-09-30T20:03:26.020Z,1.42
2022-09-30T20:05:57.517Z,1.27
2022-09-30T20:08:29.693Z,1.20
2022-09-30T20:11:01.195Z,1.85
2022-09-30T20:13:33.062Z,1.98
2022-09-30T20:16:04.905Z,2.17
2022-09-30T20:18:36.811Z,1.55
2022-09-30T20:21:08.360Z,1.33
2022-09-30T20:23:40.298Z,1.77
2022-09-30T20:26:11.814Z,1.75
2022-09-30T20:28:43.650Z,1.25
2022-09-30T20:31:15.349Z,1.60
2022-09-30T20:33:49.382Z,1.80
2022-09-30T20:36:21.360Z,1.30
2022-09-30T20:38:53.231Z,2.03
2022-09-30T20:41:24.786Z,1.58
2022-09-30T20:43:56.308Z,2.05
2022-09-30T20:46:31.976Z,1.98
2022-09-30T20:49:03.950Z,1.80
2022-09-30T20:51:35.951Z,1.80
2022-09-30T20:54:07.643Z,1.90
2022-09-30T20:57:05.671Z,1.55
2022-09-30T20:59:31.167Z,1.63
2022-09-30T21:02:03.059Z,2.17
2022-09-30T21:04:34.932Z,1.83
2022-09-30T21:07:07.862Z,1.40
2022-09-30T21:12:14.572Z,1.10
2022-09-30T21:14:46.269Z,1.75
2022-09-30T21:17:17.831Z,1.35
2022-09-30T21:19:49.306Z,1.75
2022-09-30T21:22:20.861Z,1.80
2022-09-30T21:24:52.382Z,1.83
2022-09-30T21:27:24.225Z,2.45
2022-09-30T21:29:55.766Z,1.58
2022-09-30T21:32:27.287Z,1.80
2022-09-30T21:34:58.816Z,2.58
2022-09-30T21:37:30.367Z,1.70
2022-09-30T21:40:01.862Z,2.15
2022-09-30T21:42:33.385Z,1.90
2022-09-30T21:45:04.950Z,2.03
2022-09-30T21:47:36.472Z,2.33
2022-09-30T21:50:08.039Z,1.90
2022-09-30T21:52:39.874Z,2.10
2022-09-30T21:55:13.312Z,2.30
2022-09-30T21:57:46.251Z,2.53
2022-09-30T22:02:49.844Z,2.63
2022-09-30T22:05:21.833Z,2.65
2022-09-30T22:07:53.702Z,2.30
2022-09-30T22:10:25.572Z,2.00
2022-09-30T22:12:57.558Z,2.08
2022-09-30T22:15:29.076Z,2.70
2022-09-30T22:18:01.376Z,2.22
2022-09-30T22:20:32.880Z,2.15
2022-09-30T22:23:04.645Z,2.33
2022-09-30T22:25:36.202Z,2.15
2022-09-30T22:28:08.076Z,2.35
2022-09-30T22:30:40.006Z,2.17
2022-09-30T22:33:30.185Z,2.53
2022-09-30T22:36:20.739Z,2.35
2022-09-30T22:38:52.256Z,2.33
2022-09-30T22:41:24.141Z,2.55
2022-09-30T22:43:55.690Z,2.40
2022-09-30T22:46:29.071Z,2.72
2022-09-30T22:49:00.625Z,2.47
2022-09-30T22:51:33.119Z,2.33
2022-09-30T22:54:05.817Z,1.80
2022-09-30T22:56:37.676Z,2.13
2022-09-30T22:59:09.187Z,2.22
2022-09-30T23:01:40.994Z,3.10
2022-09-30T23:04:13.031Z,2.83
2022-09-30T23:06:45.691Z,2.80
2022-09-30T23:09:17.186Z,2.95
2022-09-30T23:11:49.003Z,2.47
2022-09-30T23:14:20.593Z,2.60
2022-09-30T23:16:52.521Z,2.45
2022-09-30T23:19:24.057Z,2.15
2022-09-30T23:21:56.348Z,2.85
2022-09-30T23:24:30.277Z,2.45
2022-09-30T23:27:02.562Z,2.47
2022-09-30T23:29:34.136Z,2.75
2022-09-30T23:32:05.993Z,2.88
2022-09-30T23:34:37.514Z,2.45
2022-09-30T23:37:09.314Z,3.45
2022-09-30T23:39:40.802Z,2.88
2022-09-30T23:42:12.640Z,3.17
2022-09-30T23:44:44.137Z,2.92
2022-09-30T23:47:19.148Z,3.10
2022-09-30T23:49:50.914Z,3.45
2022-09-30T23:52:22.887Z,2.83
2022-09-30T23:54:54.468Z,2.55
2022-09-30T23:57:26.292Z,2.90
2022-09-30T23:59:57.787Z,2.00
